createdAt,value
2019-05-26T00:00:48.576Z,69.70
2019-05-26T00:03:17.269Z,69.87
2019-05-26T00:05:46.058Z,69.87
2019-05-26T00:08:14.463Z,69.93
2019-05-26T00:10:42.864Z,70.01
2019-05-26T00:13:11.541Z,70.16
2019-05-26T00:15:39.938Z,70.32
2019-05-26T00:18:08.337Z,70.46
2019-05-26T00:20:36.739Z,70.74
2019-05-26T00:23:05.152Z,70.82
2019-05-26T00:25:33.831Z,70.62
2019-05-26T00:28:02.545Z,70.55
2019-05-26T00:30:30.929Z,70.73
2019-05-26T00:32:59.335Z,70.84
2019-05-26T00:35:27.743Z,70.91
2019-05-26T00:37:56.130Z,70.90
2019-05-26T00:40:24.698Z,70.81
2019-05-26T00:42:53.089Z,70.85
2019-05-26T00:45:21.931Z,70.64
2019-05-26T00:47:50.506Z,70.87
2019-05-26T00:50:19.510Z,71.04
2019-05-26T00:52:47.908Z,71.15
2019-05-26T00:55:17.656Z,71.18
2019-05-26T00:57:46.122Z,71.25
2019-05-26T01:00:16.245Z,71.35
2019-05-26T01:02:44.723Z,71.39
2019-05-26T01:05:13.549Z,71.39
2019-05-26T01:07:42.284Z,71.46
2019-05-26T01:10:11.214Z,71.73
2019-05-26T01:12:39.611Z,71.64
2019-05-26T01:15:08.936Z,71.54
2019-05-26T01:17:37.859Z,71.67
2019-05-26T01:20:07.599Z,71.82
2019-05-26T01:22:36.012Z,71.82
2019-05-26T01:25:07.340Z,71.92
2019-05-26T01:27:35.997Z,72.01
2019-05-26T01:30:09.619Z,72.13
2019-05-26T01:32:38.005Z,72.26
2019-05-26T01:35:07.561Z,72.38
2019-05-26T01:37:38.187Z,72.34
2019-05-26T01:40:09.944Z,72.39
2019-05-26T01:42:38.402Z,72.68
2019-05-26T01:45:09.963Z,72.81
2019-05-26T01:47:38.425Z,72.98
2019-05-26T01:50:07.460Z,73.20
2019-05-26T01:52:35.887Z,73.20
2019-05-26T01:55:06.142Z,73.21
2019-05-26T01:57:34.513Z,73.27
2019-05-26T02:00:02.966Z,73.20
2019-05-26T02:02:31.371Z,73.24
2019-05-26T02:04:59.796Z,73.02
2019-05-26T02:07:28.187Z,73.01
2019-05-26T02:09:56.597Z,72.92
2019-05-26T02:12:25.094Z,72.72
2019-05-26T02:14:53.802Z,72.76
2019-05-26T02:17:22.213Z,72.77
2019-05-26T02:19:50.601Z,72.68
2019-05-26T02:22:18.989Z,72.75
2019-05-26T02:24:47.641Z,72.77
2019-05-26T02:27:16.044Z,72.57
2019-05-26T02:29:44.725Z,72.46
2019-05-26T02:32:13.120Z,72.49
2019-05-26T02:34:41.519Z,72.26
2019-05-26T02:37:09.929Z,72.08
2019-05-26T02:39:38.315Z,71.85
2019-05-26T02:42:06.715Z,71.87
2019-05-26T02:44:35.111Z,71.89
2019-05-26T02:47:03.517Z,71.96
2019-05-26T02:49:31.927Z,71.67
2019-05-26T02:52:00.309Z,71.49
2019-05-26T02:54:28.722Z,71.64
2019-05-26T02:56:57.277Z,71.47
2019-05-26T02:59:25.669Z,71.56
2019-05-26T03:02:03.153Z,71.40
2019-05-26T03:04:24.739Z,71.41
2019-05-26T03:06:55.088Z,71.42
2019-05-26T03:09:24.207Z,71.49
2019-05-26T03:11:54.524Z,71.49
2019-05-26T03:14:25.270Z,71.47
2019-05-26T03:16:55.912Z,71.40
2019-05-26T03:19:26.908Z,71.45
2019-05-26T03:21:58.392Z,71.42
2019-05-26T03:24:28.700Z,71.56
2019-05-26T03:26:57.685Z,71.63
2019-05-26T03:29:26.090Z,71.87
2019-05-26T03:31:54.539Z,72.01
2019-05-26T03:34:23.361Z,72.16
2019-05-26T03:36:51.776Z,72.20
2019-05-26T03:39:20.183Z,72.30
2019-05-26T03:41:48.936Z,72.39
2019-05-26T03:44:17.620Z,72.37
2019-05-26T03:46:46.020Z,72.10
2019-05-26T03:49:14.694Z,72.32
2019-05-26T03:51:43.093Z,72.42
2019-05-26T03:54:11.760Z,72.20
2019-05-26T03:56:40.164Z,72.45
2019-05-26T03:59:08.566Z,72.65
2019-05-26T04:01:37.035Z,72.65
2019-05-26T04:04:05.417Z,72.83
2019-05-26T04:06:33.831Z,73.08
2019-05-26T04:09:02.247Z,73.19
2019-05-26T04:11:30.625Z,73.51
2019-05-26T04:13:59.340Z,73.45
2019-05-26T04:16:28.022Z,73.63
2019-05-26T04:18:56.411Z,73.68
2019-05-26T04:21:24.819Z,73.60
2019-05-26T04:23:53.292Z,73.76
2019-05-26T04:26:21.670Z,73.75
2019-05-26T04:28:50.184Z,73.93
2019-05-26T04:31:18.583Z,73.79
2019-05-26T04:33:46.993Z,73.94
2019-05-26T04:36:15.368Z,74.14
2019-05-26T04:38:43.812Z,74.26
2019-05-26T04:41:12.221Z,74.18
2019-05-26T04:43:40.638Z,74.10
2019-05-26T04:46:09.033Z,73.93
2019-05-26T04:48:37.602Z,73.98
2019-05-26T04:51:05.992Z,73.84
2019-05-26T04:53:34.392Z,73.62
2019-05-26T04:56:02.793Z,73.75
2019-05-26T04:58:31.188Z,73.49
2019-05-26T05:00:59.655Z,73.58
2019-05-26T05:03:28.142Z,73.27
2019-05-26T05:05:56.806Z,73.27
2019-05-26T05:08:25.383Z,73.20
2019-05-26T05:10:53.792Z,73.12
2019-05-26T05:13:24.900Z,72.81
2019-05-26T05:15:52.319Z,72.48
2019-05-26T05:18:20.714Z,72.33
2019-05-26T05:20:49.152Z,72.04
2019-05-26T05:23:17.557Z,71.36
2019-05-26T05:25:45.947Z,71.01
2019-05-26T05:28:14.366Z,71.10
2019-05-26T05:30:42.754Z,70.74
2019-05-26T05:33:11.915Z,70.74
2019-05-26T05:35:40.335Z,70.51
2019-05-26T05:38:08.732Z,70.31
2019-05-26T05:40:37.137Z,70.82
2019-05-26T05:43:05.522Z,70.64
2019-05-26T05:45:33.920Z,70.68
2019-05-26T05:48:02.897Z,70.66
2019-05-26T05:50:31.278Z,70.73
2019-05-26T05:52:59.689Z,70.52
2019-05-26T05:55:28.080Z,70.40
2019-05-26T05:57:56.481Z,70.18
2019-05-26T06:00:24.887Z,70.09
2019-05-26T06:02:53.282Z,70.29
2019-05-26T06:05:21.698Z,69.89
2019-05-26T06:07:50.094Z,69.88
2019-05-26T06:10:18.575Z,69.97
2019-05-26T06:12:46.967Z,69.49
2019-05-26T06:15:17.257Z,69.08
2019-05-26T06:17:46.224Z,69.21
2019-05-26T06:20:17.438Z,68.44
2019-05-26T06:22:46.208Z,68.59
2019-05-26T06:25:15.128Z,68.96
2019-05-26T06:27:43.519Z,68.53
2019-05-26T06:30:12.370Z,68.68
2019-05-26T06:32:40.754Z,68.92
2019-05-26T06:35:09.502Z,68.76
2019-05-26T06:37:37.903Z,68.63
2019-05-26T06:40:08.049Z,68.26
2019-05-26T06:42:36.512Z,68.08
2019-05-26T06:45:06.922Z,67.42
2019-05-26T06:47:35.356Z,66.85
2019-05-26T06:50:08.269Z,67.14
2019-05-26T06:52:36.647Z,67.75
2019-05-26T06:55:08.661Z,67.09
2019-05-26T06:57:37.087Z,67.24
2019-05-26T07:00:09.543Z,67.05
2019-05-26T07:02:38.007Z,65.34
2019-05-26T07:05:08.040Z,65.86
2019-05-26T07:07:36.743Z,65.39
2019-05-26T07:10:08.573Z,64.84
2019-05-26T07:12:37.477Z,64.67
2019-05-26T07:15:08.208Z,63.19
2019-05-26T07:17:36.685Z,63.53
2019-05-26T07:20:13.755Z,62.22
2019-05-26T07:22:42.109Z,61.16
2019-05-26T07:25:11.092Z,61.27
2019-05-26T07:27:39.512Z,60.98
2019-05-26T07:30:08.934Z,61.24
2019-05-26T07:32:37.590Z,61.19
2019-05-26T07:35:07.134Z,60.47
2019-05-26T07:37:35.534Z,62.14
2019-05-26T07:40:04.881Z,61.24
2019-05-26T07:42:33.267Z,61.29
2019-05-26T07:45:01.691Z,58.81
2019-05-26T07:47:34.607Z,58.13
2019-05-26T07:50:02.392Z,58.19
2019-05-26T07:52:31.127Z,58.67
2019-05-26T07:54:59.531Z,58.75
2019-05-26T07:57:27.945Z,57.43
2019-05-26T07:59:56.339Z,56.01
2019-05-26T08:02:26.308Z,55.78
2019-05-26T08:04:54.712Z,56.91
2019-05-26T08:07:23.477Z,55.75
2019-05-26T08:09:51.967Z,55.42
2019-05-26T08:12:26.871Z,56.21
2019-05-26T08:14:50.815Z,56.42
2019-05-26T08:17:19.218Z,57.76
2019-05-26T08:19:47.727Z,56.07
2019-05-26T08:22:16.129Z,56.15
2019-05-26T08:24:44.538Z,55.62
2019-05-26T08:27:12.926Z,54.64
2019-05-26T08:29:41.576Z,55.99
2019-05-26T08:32:09.973Z,55.70
2019-05-26T08:34:38.367Z,54.79
2019-05-26T08:37:06.771Z,54.88
2019-05-26T08:39:35.189Z,53.60
2019-05-26T08:42:03.598Z,53.98
2019-05-26T08:44:32.018Z,53.88
2019-05-26T08:47:00.407Z,53.14
2019-05-26T08:49:28.811Z,54.13
2019-05-26T08:51:57.259Z,53.96
2019-05-26T08:54:25.649Z,53.34
2019-05-26T08:56:55.588Z,53.01
2019-05-26T08:59:23.980Z,51.95
2019-05-26T09:01:52.460Z,51.65
2019-05-26T09:04:20.889Z,51.06
2019-05-26T09:06:49.280Z,50.57
2019-05-26T09:09:17.697Z,50.36
2019-05-26T09:11:46.168Z,50.79
2019-05-26T09:14:14.756Z,48.20
2019-05-26T09:16:43.245Z,47.33
2019-05-26T09:19:11.631Z,48.18
2019-05-26T09:21:40.388Z,47.09
2019-05-26T09:24:08.777Z,45.98
2019-05-26T09:26:37.190Z,45.15
2019-05-26T09:29:05.841Z,44.25
2019-05-26T09:31:34.482Z,42.72
2019-05-26T09:34:02.881Z,40.16
2019-05-26T09:36:31.268Z,39.79
2019-05-26T09:38:59.998Z,40.26
2019-05-26T09:41:28.395Z,40.39
2019-05-26T09:43:56.800Z,38.20
2019-05-26T09:46:25.266Z,38.21
2019-05-26T09:48:53.658Z,39.23
2019-05-26T09:51:22.047Z,39.61
2019-05-26T09:54:01.176Z,38.33
2019-05-26T09:56:20.569Z,39.06
2019-05-26T09:58:48.981Z,39.53
2019-05-26T10:01:17.382Z,39.06
2019-05-26T10:03:46.806Z,38.99
2019-05-26T10:06:15.596Z,40.12
2019-05-26T10:08:44.084Z,39.88
2019-05-26T10:11:12.681Z,40.12
2019-05-26T10:13:41.340Z,39.93
2019-05-26T10:16:13.690Z,41.22
2019-05-26T10:18:42.076Z,41.66
2019-05-26T10:21:10.461Z,41.27
2019-05-26T10:23:38.862Z,41.45
2019-05-26T10:26:07.659Z,41.27
2019-05-26T10:28:38.741Z,41.81
2019-05-26T10:31:10.913Z,42.82
2019-05-26T10:33:39.375Z,42.03
2019-05-26T10:36:07.770Z,42.62
2019-05-26T10:38:36.160Z,42.62
2019-05-26T10:41:04.659Z,42.47
2019-05-26T10:43:46.944Z,42.10
2019-05-26T10:46:05.166Z,43.14
2019-05-26T10:48:33.563Z,42.68
2019-05-26T10:51:01.944Z,42.41
2019-05-26T10:53:30.339Z,42.92
2019-05-26T10:55:58.725Z,42.71
2019-05-26T10:58:27.174Z,43.15
2019-05-26T11:00:57.602Z,43.11
2019-05-26T11:03:25.987Z,43.32
2019-05-26T11:05:54.382Z,43.77
2019-05-26T11:08:23.064Z,43.30
2019-05-26T11:10:51.454Z,42.79
2019-05-26T11:13:19.874Z,43.99
2019-05-26T11:15:48.229Z,43.78
2019-05-26T11:18:16.632Z,43.79
2019-05-26T11:20:45.026Z,43.89
2019-05-26T11:23:15.225Z,44.84
2019-05-26T11:25:44.128Z,43.72
2019-05-26T11:28:12.691Z,43.75
2019-05-26T11:30:41.484Z,43.67
2019-05-26T11:33:10.549Z,43.04
2019-05-26T11:35:38.925Z,42.89
2019-05-26T11:38:07.320Z,44.55
2019-05-26T11:40:36.047Z,43.98
2019-05-26T11:43:16.246Z,44.35
2019-05-26T11:45:34.715Z,45.89
2019-05-26T11:48:03.188Z,43.52
2019-05-26T11:50:31.828Z,43.64
2019-05-26T11:53:00.251Z,43.67
2019-05-26T11:55:28.626Z,43.28
2019-05-26T11:57:57.284Z,43.79
2019-05-26T12:00:26.111Z,43.87
2019-05-26T12:02:54.498Z,43.62
2019-05-26T12:05:22.897Z,44.20
2019-05-26T12:07:51.365Z,43.83
2019-05-26T12:10:19.894Z,46.70
2019-05-26T12:12:48.345Z,43.86
2019-05-26T12:15:17.469Z,43.01
2019-05-26T12:17:45.927Z,42.49
2019-05-26T12:20:15.569Z,43.12
2019-05-26T12:22:44.291Z,43.10
2019-05-26T12:25:15.055Z,42.67
2019-05-26T12:27:43.455Z,42.79
2019-05-26T12:30:12.180Z,43.04
2019-05-26T12:32:40.667Z,44.72
2019-05-26T12:35:09.923Z,42.22
2019-05-26T12:37:40.148Z,42.35
2019-05-26T12:40:09.624Z,42.38
2019-05-26T12:42:38.023Z,42.06
2019-05-26T12:45:08.397Z,41.96
2019-05-26T12:47:36.969Z,42.42
2019-05-26T12:50:07.945Z,41.76
2019-05-26T12:52:36.337Z,41.89
2019-05-26T12:55:09.164Z,41.92
2019-05-26T12:57:37.245Z,42.42
2019-05-26T13:00:10.168Z,41.46
2019-05-26T13:02:38.903Z,42.33
2019-05-26T13:05:08.425Z,42.01
2019-05-26T13:07:39.299Z,41.67
2019-05-26T13:10:12.025Z,40.29
2019-05-26T13:12:40.437Z,41.01
2019-05-26T13:15:10.782Z,41.59
2019-05-26T13:17:43.189Z,40.96
2019-05-26T13:20:13.459Z,41.48
2019-05-26T13:22:41.950Z,41.17
2019-05-26T13:25:14.608Z,41.86
2019-05-26T13:27:43.755Z,41.45
2019-05-26T13:30:15.415Z,41.13
2019-05-26T13:32:44.050Z,41.70
2019-05-26T13:35:13.300Z,41.76
2019-05-26T13:37:41.758Z,42.67
2019-05-26T13:40:10.701Z,41.58
2019-05-26T13:42:39.103Z,42.26
2019-05-26T13:45:21.258Z,42.20
2019-05-26T13:47:38.526Z,41.75
2019-05-26T13:50:11.067Z,41.94
2019-05-26T13:52:39.611Z,42.34
2019-05-26T13:55:09.777Z,42.59
2019-05-26T13:57:38.181Z,41.11
2019-05-26T14:00:10.869Z,42.41
2019-05-26T14:02:41.163Z,42.16
2019-05-26T14:05:12.007Z,41.03
2019-05-26T14:07:46.012Z,41.58
2019-05-26T14:10:19.318Z,41.22
2019-05-26T14:12:48.026Z,41.22
2019-05-26T14:15:18.720Z,40.74
2019-05-26T14:17:47.907Z,41.25
2019-05-26T14:20:19.797Z,41.60
2019-05-26T14:22:49.482Z,41.46
2019-05-26T14:25:17.978Z,41.08
2019-05-26T14:27:47.115Z,41.61
2019-05-26T14:30:18.071Z,41.76
2019-05-26T14:32:46.536Z,41.65
2019-05-26T14:35:16.659Z,41.93
2019-05-26T14:37:47.650Z,42.87
2019-05-26T14:40:21.059Z,42.87
2019-05-26T14:42:50.553Z,43.20
2019-05-26T14:45:20.405Z,43.70
2019-05-26T14:47:48.854Z,44.02
2019-05-26T14:50:18.085Z,44.86
2019-05-26T14:52:46.524Z,44.87
2019-05-26T14:55:17.018Z,44.82
2019-05-26T14:57:45.405Z,44.73
2019-05-26T15:00:14.222Z,44.90
2019-05-26T15:02:42.653Z,44.91
2019-05-26T15:05:11.700Z,44.91
2019-05-26T15:07:40.106Z,44.29
2019-05-26T15:10:10.249Z,44.18
2019-05-26T15:12:38.680Z,44.04
2019-05-26T15:15:07.919Z,44.11
2019-05-26T15:17:36.388Z,44.41
2019-05-26T15:20:06.365Z,45.48
2019-05-26T15:22:34.823Z,45.77
2019-05-26T15:25:05.085Z,44.80
2019-05-26T15:27:36.909Z,44.94
2019-05-26T15:30:13.120Z,45.21
2019-05-26T15:32:42.336Z,45.75
2019-05-26T15:35:11.263Z,46.37
2019-05-26T15:37:39.864Z,46.36
2019-05-26T15:40:08.971Z,46.58
2019-05-26T15:42:37.371Z,46.38
2019-05-26T15:45:09.499Z,46.89
2019-05-26T15:47:38.124Z,47.19
2019-05-26T15:50:08.039Z,47.66
2019-05-26T15:52:36.453Z,47.70
2019-05-26T15:55:05.488Z,47.95
2019-05-26T15:57:34.253Z,47.84
2019-05-26T16:00:02.915Z,48.04
2019-05-26T16:02:31.375Z,48.03
2019-05-26T16:04:59.765Z,48.30
2019-05-26T16:07:28.237Z,48.50
2019-05-26T16:09:56.778Z,46.95
2019-05-26T16:12:25.313Z,47.43
2019-05-26T16:14:53.707Z,47.75
2019-05-26T16:17:22.372Z,47.64
2019-05-26T16:19:50.889Z,47.63
2019-05-26T16:22:19.738Z,47.48
2019-05-26T16:24:48.118Z,47.44
2019-05-26T16:27:19.604Z,47.58
2019-05-26T16:29:49.105Z,47.55
2019-05-26T16:32:18.951Z,47.53
2019-05-26T16:34:47.533Z,47.65
2019-05-26T16:37:15.935Z,48.33
2019-05-26T16:39:46.484Z,47.98
2019-05-26T16:42:15.483Z,48.16
2019-05-26T16:44:43.892Z,48.48
2019-05-26T16:47:14.408Z,47.79
2019-05-26T16:49:44.598Z,47.87
2019-05-26T16:52:16.190Z,47.56
2019-05-26T16:54:44.609Z,47.62
2019-05-26T16:57:13.514Z,47.26
2019-05-26T16:59:41.984Z,46.78
2019-05-26T17:02:11.131Z,46.83
2019-05-26T17:04:39.803Z,46.24
2019-05-26T17:07:08.518Z,46.10
2019-05-26T17:09:36.954Z,46.09
2019-05-26T17:12:05.727Z,46.46
2019-05-26T17:14:34.152Z,46.44
2019-05-26T17:17:14.354Z,46.31
2019-05-26T17:19:37.097Z,46.27
2019-05-26T17:22:07.082Z,47.25
2019-05-26T17:24:35.504Z,48.06
2019-05-26T17:27:04.073Z,47.61
2019-05-26T17:29:32.734Z,47.23
2019-05-26T17:32:01.426Z,47.58
2019-05-26T17:34:30.113Z,47.72
2019-05-26T17:37:03.611Z,47.97
2019-05-26T17:39:32.214Z,48.11
2019-05-26T17:42:00.886Z,47.96
2019-05-26T17:44:29.544Z,48.35
2019-05-26T17:46:58.737Z,48.45
2019-05-26T17:49:27.133Z,48.14
2019-05-26T17:51:55.540Z,48.68
2019-05-26T17:54:26.085Z,48.64
2019-05-26T17:56:54.200Z,48.62
2019-05-26T17:59:25.873Z,48.36
2019-05-26T18:01:59.231Z,48.50
2019-05-26T18:04:27.816Z,48.41
2019-05-26T18:06:59.205Z,48.80
2019-05-26T18:09:42.948Z,48.99
2019-05-26T18:12:01.444Z,49.61
2019-05-26T18:14:33.275Z,49.02
2019-05-26T18:17:01.945Z,49.15
2019-05-26T18:19:30.654Z,48.92
2019-05-26T18:21:59.057Z,48.72
2019-05-26T18:24:27.536Z,47.99
2019-05-26T18:26:55.918Z,47.99
2019-05-26T18:29:24.682Z,48.31
2019-05-26T18:31:53.337Z,48.61
2019-05-26T18:34:22.019Z,48.67
2019-05-26T18:36:50.418Z,48.09
2019-05-26T18:39:19.082Z,47.94
2019-05-26T18:41:47.928Z,48.04
2019-05-26T18:44:16.514Z,48.54
2019-05-26T18:46:44.897Z,48.45
2019-05-26T18:49:13.364Z,48.96
2019-05-26T18:51:41.761Z,49.16
2019-05-26T18:54:10.155Z,49.38
2019-05-26T18:56:38.928Z,49.65
2019-05-26T18:59:07.320Z,50.50
2019-05-26T19:01:35.728Z,51.00
2019-05-26T19:04:04.283Z,51.19
2019-05-26T19:06:32.677Z,51.29
2019-05-26T19:09:01.137Z,51.84
2019-05-26T19:11:29.587Z,52.18
2019-05-26T19:13:57.968Z,52.37
2019-05-26T19:16:26.371Z,52.55
2019-05-26T19:18:55.100Z,52.89
2019-05-26T19:21:23.503Z,53.09
2019-05-26T19:23:51.969Z,53.38
2019-05-26T19:26:22.365Z,54.37
2019-05-26T19:28:50.820Z,54.19
2019-05-26T19:31:19.301Z,54.53
2019-05-26T19:33:52.296Z,54.27
2019-05-26T19:36:20.809Z,54.49
2019-05-26T19:38:49.528Z,54.51
2019-05-26T19:41:17.935Z,54.31
2019-05-26T19:43:46.399Z,54.36
2019-05-26T19:46:14.968Z,54.72
2019-05-26T19:48:43.609Z,54.51
2019-05-26T19:51:11.990Z,54.49
2019-05-26T19:53:43.950Z,54.59
2019-05-26T19:56:12.614Z,54.91
2019-05-26T19:58:41.312Z,54.64
2019-05-26T20:01:09.703Z,54.42
2019-05-26T20:03:38.098Z,54.90
2019-05-26T20:06:06.924Z,54.56
2019-05-26T20:08:35.364Z,54.76
2019-05-26T20:11:03.896Z,54.90
2019-05-26T20:13:32.376Z,55.46
2019-05-26T20:16:00.885Z,55.84
2019-05-26T20:18:29.351Z,55.52
2019-05-26T20:20:57.758Z,54.51
2019-05-26T20:23:26.305Z,54.90
2019-05-26T20:25:54.982Z,55.04
2019-05-26T20:28:23.442Z,54.62
2019-05-26T20:30:51.905Z,54.84
2019-05-26T20:33:20.309Z,54.18
2019-05-26T20:35:48.926Z,51.82
2019-05-26T20:38:17.394Z,51.84
2019-05-26T20:40:47.250Z,51.91
2019-05-26T20:43:15.977Z,50.84
2019-05-26T20:45:44.625Z,49.74
2019-05-26T20:48:13.038Z,49.30
2019-05-26T20:50:41.438Z,48.82
2019-05-26T20:53:09.830Z,48.42
2019-05-26T20:55:38.251Z,48.69
2019-05-26T20:58:06.897Z,49.32
2019-05-26T21:00:35.302Z,49.76
2019-05-26T21:03:03.792Z,50.23
2019-05-26T21:05:32.193Z,50.44
2019-05-26T21:08:00.972Z,50.66
2019-05-26T21:10:29.637Z,51.06
2019-05-26T21:12:58.742Z,51.39
2019-05-26T21:15:27.449Z,52.25
2019-05-26T21:17:55.851Z,52.21
2019-05-26T21:20:24.500Z,53.11
2019-05-26T21:22:52.900Z,53.70
2019-05-26T21:25:21.586Z,54.18
2019-05-26T21:27:50.000Z,54.78
2019-05-26T21:30:18.729Z,55.25
2019-05-26T21:32:47.482Z,55.66
2019-05-26T21:35:16.438Z,56.01
2019-05-26T21:37:44.961Z,56.78
2019-05-26T21:40:14.127Z,57.55
2019-05-26T21:42:42.937Z,58.20
2019-05-26T21:45:12.117Z,58.87
2019-05-26T21:47:42.433Z,59.16
2019-05-26T21:50:11.256Z,59.60
2019-05-26T21:52:39.739Z,59.70
2019-05-26T21:55:08.926Z,60.04
2019-05-26T21:57:37.384Z,60.23
2019-05-26T22:00:12.551Z,60.79
2019-05-26T22:02:41.904Z,61.30
2019-05-26T22:05:10.646Z,61.77
2019-05-26T22:07:39.181Z,62.27
2019-05-26T22:10:07.916Z,62.36
2019-05-26T22:12:36.354Z,62.99
2019-05-26T22:15:07.324Z,62.96
2019-05-26T22:17:35.732Z,63.10
2019-05-26T22:20:08.277Z,63.41
2019-05-26T22:22:36.711Z,63.70
2019-05-26T22:25:08.408Z,64.12
2019-05-26T22:27:36.800Z,64.45
2019-05-26T22:30:08.270Z,64.49
2019-05-26T22:32:36.692Z,64.69
2019-05-26T22:35:08.135Z,64.84
2019-05-26T22:37:36.549Z,64.89
2019-05-26T22:40:06.838Z,65.15
2019-05-26T22:42:35.230Z,65.45
2019-05-26T22:45:04.828Z,65.42
2019-05-26T22:47:33.526Z,65.64
2019-05-26T22:50:02.256Z,65.98
2019-05-26T22:52:30.902Z,66.03
2019-05-26T22:54:59.617Z,66.05
2019-05-26T22:57:28.147Z,66.24
2019-05-26T22:59:56.546Z,66.33
2019-05-26T23:02:24.937Z,66.35
2019-05-26T23:04:53.340Z,66.21
2019-05-26T23:07:22.028Z,66.17
2019-05-26T23:09:50.721Z,66.15
2019-05-26T23:12:19.391Z,66.17
2019-05-26T23:14:47.793Z,66.29
2019-05-26T23:17:16.206Z,66.35
2019-05-26T23:19:44.584Z,66.63
2019-05-26T23:22:12.971Z,66.79
2019-05-26T23:24:41.450Z,66.99
2019-05-26T23:27:09.924Z,66.87
2019-05-26T23:29:38.321Z,66.84
2019-05-26T23:32:06.727Z,66.79
2019-05-26T23:34:35.107Z,66.92
2019-05-26T23:37:03.518Z,66.92
2019-05-26T23:39:31.914Z,67.00
2019-05-26T23:42:00.309Z,66.63
2019-05-26T23:44:28.720Z,66.48
2019-05-26T23:46:57.127Z,66.29
2019-05-26T23:49:25.522Z,66.03
2019-05-26T23:51:53.914Z,66.46
2019-05-26T23:54:22.315Z,66.19
2019-05-26T23:56:50.726Z,65.77
2019-05-26T23:59:19.143Z,65.58
